sensor_id;sensor_type;location;lat;lon;timestamp;temperature;humidity
75517;DHT22;64097;52.548;13.406;2023-01-01T06:03:02;18.60;49.50
75517;DHT22;64097;52.548;13.406;2023-01-01T06:05:28;18.60;49.30
75517;DHT22;64097;52.548;13.406;2023-01-01T06:07:53;18.60;49.50
75517;DHT22;64097;52.548;13.406;2023-01-01T06:10:19;18.60;49.50
75517;DHT22;64097;52.548;13.406;2023-01-01T06:12:45;18.60;49.50
75517;DHT22;64097;52.548;13.406;2023-01-01T06:15:10;18.60;49.50
75517;DHT22;64097;52.548;13.406;2023-01-01T06:17:36;18.60;49.50
75517;DHT22;64097;52.548;13.406;2023-01-01T06:20:02;18.60;49.50
75517;DHT22;64097;52.548;13.406;2023-01-01T06:22:27;18.60;49.40
75517;DHT22;64097;52.548;13.406;2023-01-01T06:24:53;18.60;49.50
75517;DHT22;64097;52.548;13.406;2023-01-01T06:27:18;18.60;49.50
75517;DHT22;64097;52.548;13.406;2023-01-01T06:29:44;18.60;49.50
75517;DHT22;64097;52.548;13.406;2023-01-01T06:32:10;18.60;49.50
75517;DHT22;64097;52.548;13.406;2023-01-01T06:34:35;18.60;49.40
75517;DHT22;64097;52.548;13.406;2023-01-01T06:37:01;18.60;49.40
75517;DHT22;64097;52.548;13.406;2023-01-01T06:39:27;18.60;49.30
75517;DHT22;64097;52.548;13.406;2023-01-01T06:41:53;18.60;49.30
75517;DHT22;64097;52.548;13.406;2023-01-01T06:44:19;18.60;49.40
75517;DHT22;64097;52.548;13.406;2023-01-01T06:46:44;18.60;49.40
75517;DHT22;64097;52.548;13.406;2023-01-01T06:49:10;18.60;49.40
75517;DHT22;64097;52.548;13.406;2023-01-01T06:51:42;18.60;49.40
75517;DHT22;64097;52.548;13.406;2023-01-01T06:54:09;18.50;49.40
75517;DHT22;64097;52.548;13.406;2023-01-01T06:56:35;18.60;49.40
75517;DHT22;64097;52.548;13.406;2023-01-01T06:59:01;18.60;49.40
75517;DHT22;64097;52.548;13.406;2023-01-01T07:01:30;18.60;49.40
75517;DHT22;64097;52.548;13.406;2023-01-01T07:04:05;18.50;49.40
75517;DHT22;64097;52.548;13.406;2023-01-01T07:06:33;18.50;49.40
75517;DHT22;64097;52.548;13.406;2023-01-01T07:08:59;18.50;49.40
75517;DHT22;64097;52.548;13.406;2023-01-01T07:11:26;18.50;49.30
75517;DHT22;64097;52.548;13.406;2023-01-01T07:13:52;18.50;49.50
75517;DHT22;64097;52.548;13.406;2023-01-01T07:16:18;18.50;49.50
75517;DHT22;64097;52.548;13.406;2023-01-01T07:18:44;18.50;49.50
75517;DHT22;64097;52.548;13.406;2023-01-01T07:23:59;18.50;49.50
75517;DHT22;64097;52.548;13.406;2023-01-01T07:26:26;18.50;49.60
75517;DHT22;64097;52.548;13.406;2023-01-01T07:28:52;18.50;49.60
75517;DHT22;64097;52.548;13.406;2023-01-01T07:31:18;18.50;49.50
75517;DHT22;64097;52.548;13.406;2023-01-01T07:33:44;18.50;49.60
75517;DHT22;64097;52.548;13.406;2023-01-01T07:36:10;18.60;49.50
75517;DHT22;64097;52.548;13.406;2023-01-01T07:38:36;18.50;49.50
75517;DHT22;64097;52.548;13.406;2023-01-01T07:41:01;18.60;49.60
75517;DHT22;64097;52.548;13.406;2023-01-01T07:43:27;18.60;49.50
75517;DHT22;64097;52.548;13.406;2023-01-01T07:45:52;18.60;49.50
75517;DHT22;64097;52.548;13.406;2023-01-01T07:48:18;18.60;49.40
75517;DHT22;64097;52.548;13.406;2023-01-01T07:50:44;18.60;49.30
75517;DHT22;64097;52.548;13.406;2023-01-01T07:53:09;18.60;49.40
75517;DHT22;64097;52.548;13.406;2023-01-01T07:55:35;18.70;49.40
75517;DHT22;64097;52.548;13.406;2023-01-01T07:58:01;18.70;49.40
75517;DHT22;64097;52.548;13.406;2023-01-01T08:00:27;18.70;49.40
75517;DHT22;64097;52.548;13.406;2023-01-01T08:02:53;18.70;49.40
75517;DHT22;64097;52.548;13.406;2023-01-01T08:05:19;18.70;49.30
75517;DHT22;64097;52.548;13.406;2023-01-01T08:07:49;18.70;49.30
75517;DHT22;64097;52.548;13.406;2023-01-01T08:10:16;18.70;49.30
75517;DHT22;64097;52.548;13.406;2023-01-01T08:12:42;18.70;49.30
75517;DHT22;64097;52.548;13.406;2023-01-01T08:15:09;18.60;49.30
75517;DHT22;64097;52.548;13.406;2023-01-01T08:17:35;18.70;49.40
75517;DHT22;64097;52.548;13.406;2023-01-01T08:20:01;18.70;49.40
75517;DHT22;64097;52.548;13.406;2023-01-01T08:22:26;18.70;49.30
75517;DHT22;64097;52.548;13.406;2023-01-01T08:24:52;18.70;49.40
75517;DHT22;64097;52.548;13.406;2023-01-01T08:27:18;18.70;49.40
75517;DHT22;64097;52.548;13.406;2023-01-01T08:29:44;18.80;49.30
75517;DHT22;64097;52.548;13.406;2023-01-01T08:32:10;18.80;49.30
75517;DHT22;64097;52.548;13.406;2023-01-01T08:34:36;18.80;49.30
75517;DHT22;64097;52.548;13.406;2023-01-01T08:37:02;18.80;49.30
75517;DHT22;64097;52.548;13.406;2023-01-01T08:39:28;18.80;49.30
75517;DHT22;64097;52.548;13.406;2023-01-01T08:41:54;18.80;49.20
75517;DHT22;64097;52.548;13.406;2023-01-01T08:44:20;18.90;49.20
75517;DHT22;64097;52.548;13.406;2023-01-01T08:46:45;18.80;49.20
75517;DHT22;64097;52.548;13.406;2023-01-01T08:49:11;18.90;49.30
75517;DHT22;64097;52.548;13.406;2023-01-01T08:51:37;18.90;49.20
75517;DHT22;64097;52.548;13.406;2023-01-01T08:54:03;18.90;49.40
75517;DHT22;64097;52.548;13.406;2023-01-01T08:56:28;18.90;49.30
75517;DHT22;64097;52.548;13.406;2023-01-01T08:58:54;18.90;49.20
75517;DHT22;64097;52.548;13.406;2023-01-01T09:01:20;18.90;49.20
75517;DHT22;64097;52.548;13.406;2023-01-01T09:03:47;18.90;49.20
75517;DHT22;64097;52.548;13.406;2023-01-01T09:06:13;18.90;49.20
75517;DHT22;64097;52.548;13.406;2023-01-01T09:08:39;19.00;49.20
75517;DHT22;64097;52.548;13.406;2023-01-01T09:11:05;19.00;49.20
75517;DHT22;64097;52.548;13.406;2023-01-01T09:13:31;19.00;49.20
75517;DHT22;64097;52.548;13.406;2023-01-01T09:15:57;18.90;49.30
75517;DHT22;64097;52.548;13.406;2023-01-01T09:18:23;19.00;49.20
75517;DHT22;64097;52.548;13.406;2023-01-01T09:20:49;19.00;49.20
75517;DHT22;64097;52.548;13.406;2023-01-01T09:23:14;19.00;49.20
75517;DHT22;64097;52.548;13.406;2023-01-01T09:25:40;19.00;49.20
75517;DHT22;64097;52.548;13.406;2023-01-01T09:28:09;19.10;49.20
75517;DHT22;64097;52.548;13.406;2023-01-01T09:30:36;19.10;49.90
75517;DHT22;64097;52.548;13.406;2023-01-01T09:33:02;19.00;49.20
75517;DHT22;64097;52.548;13.406;2023-01-01T09:35:29;19.10;49.20
75517;DHT22;64097;52.548;13.406;2023-01-01T09:37:55;19.10;49.20
75517;DHT22;64097;52.548;13.406;2023-01-01T09:43:35;19.10;49.20
75517;DHT22;64097;52.548;13.406;2023-01-01T09:46:08;19.10;49.20
75517;DHT22;64097;52.548;13.406;2023-01-01T09:48:39;19.10;49.20
75517;DHT22;64097;52.548;13.406;2023-01-01T09:51:14;19.20;49.20
75517;DHT22;64097;52.548;13.406;2023-01-01T09:53:54;19.20;49.20
75517;DHT22;64097;52.548;13.406;2023-01-01T09:56:27;19.30;49.10
75517;DHT22;64097;52.548;13.406;2023-01-01T09:58:55;19.30;49.10
75517;DHT22;64097;52.548;13.406;2023-01-01T10:13:21;19.40;49.00
75517;DHT22;64097;52.548;13.406;2023-01-01T10:16:07;19.40;49.00
75517;DHT22;64097;52.548;13.406;2023-01-01T10:18:35;19.40;49.00
75517;DHT22;64097;52.548;13.406;2023-01-01T10:24:04;19.50;48.80
75517;DHT22;64097;52.548;13.406;2023-01-01T10:26:32;19.50;48.80
75517;DHT22;64097;52.548;13.406;2023-01-01T10:31:35;19.50;48.90
75517;DHT22;64097;52.548;13.406;2023-01-01T10:34:14;19.50;48.90
75517;DHT22;64097;52.548;13.406;2023-01-01T10:36:42;19.50;48.80
75517;DHT22;64097;52.548;13.406;2023-01-01T10:39:14;19.50;48.80
75517;DHT22;64097;52.548;13.406;2023-01-01T10:41:40;19.50;48.80
75517;DHT22;64097;52.548;13.406;2023-01-01T10:44:06;19.50;48.80
75517;DHT22;64097;52.548;13.406;2023-01-01T10:46:34;19.50;48.80
75517;DHT22;64097;52.548;13.406;2023-01-01T10:49:10;19.50;48.80
75517;DHT22;64097;52.548;13.406;2023-01-01T10:51:45;19.60;48.80
75517;DHT22;64097;52.548;13.406;2023-01-01T10:56:56;19.60;48.70
75517;DHT22;64097;52.548;13.406;2023-01-01T10:59:38;19.60;48.60
75517;DHT22;64097;52.548;13.406;2023-01-01T11:02:18;19.60;49.30
75517;DHT22;64097;52.548;13.406;2023-01-01T11:04:44;19.70;48.60
75517;DHT22;64097;52.548;13.406;2023-01-01T11:07:27;19.70;48.60
75517;DHT22;64097;52.548;13.406;2023-01-01T11:09:58;19.70;48.60
75517;DHT22;64097;52.548;13.406;2023-01-01T11:12:28;19.70;48.60
75517;DHT22;64097;52.548;13.406;2023-01-01T11:14:55;19.70;48.50
75517;DHT22;64097;52.548;13.406;2023-01-01T11:17:24;19.70;48.50
75517;DHT22;64097;52.548;13.406;2023-01-01T11:19:51;19.80;48.50
75517;DHT22;64097;52.548;13.406;2023-01-01T11:25:27;19.80;48.30
75517;DHT22;64097;52.548;13.406;2023-01-01T11:28:19;19.80;48.10
75517;DHT22;64097;52.548;13.406;2023-01-01T11:31:17;19.80;48.20
75517;DHT22;64097;52.548;13.406;2023-01-01T11:36:29;19.70;48.20
75517;DHT22;64097;52.548;13.406;2023-01-01T11:41:47;19.80;48.20
75517;DHT22;64097;52.548;13.406;2023-01-01T11:47:34;19.80;48.10
75517;DHT22;64097;52.548;13.406;2023-01-01T11:50:03;19.80;48.00
75517;DHT22;64097;52.548;13.406;2023-01-01T11:52:38;19.80;48.10
75517;DHT22;64097;52.548;13.406;2023-01-01T11:55:13;19.80;48.10
75517;DHT22;64097;52.548;13.406;2023-01-01T11:57:50;19.80;48.10
75517;DHT22;64097;52.548;13.406;2023-01-01T12:00:18;19.80;48.20
75517;DHT22;64097;52.548;13.406;2023-01-01T12:02:59;19.80;48.20
75517;DHT22;64097;52.548;13.406;2023-01-01T12:05:55;19.80;48.10
75517;DHT22;64097;52.548;13.406;2023-01-01T12:08:41;19.80;48.30
75517;DHT22;64097;52.548;13.406;2023-01-01T12:11:20;19.80;48.30
75517;DHT22;64097;52.548;13.406;2023-01-01T12:13:54;19.80;48.40
75517;DHT22;64097;52.548;13.406;2023-01-01T12:16:27;19.90;48.30
75517;DHT22;64097;52.548;13.406;2023-01-01T12:19:11;19.90;48.30
75517;DHT22;64097;52.548;13.406;2023-01-01T12:21:38;19.90;48.30
75517;DHT22;64097;52.548;13.406;2023-01-01T12:24:10;19.90;48.20
75517;DHT22;64097;52.548;13.406;2023-01-01T12:27:00;19.90;48.20
75517;DHT22;64097;52.548;13.406;2023-01-01T12:35:13;19.90;48.40
75517;DHT22;64097;52.548;13.406;2023-01-01T12:51:38;19.90;48.40
75517;DHT22;64097;52.548;13.406;2023-01-01T12:57:17;19.80;48.60
75517;DHT22;64097;52.548;13.406;2023-01-01T12:59:47;19.80;48.80
75517;DHT22;64097;52.548;13.406;2023-01-01T13:02:25;19.80;48.80
75517;DHT22;64097;52.548;13.406;2023-01-01T13:04:53;19.80;48.80
75517;DHT22;64097;52.548;13.406;2023-01-01T13:07:30;19.70;48.70
75517;DHT22;64097;52.548;13.406;2023-01-01T13:10:23;19.70;48.90
75517;DHT22;64097;52.548;13.406;2023-01-01T13:12:52;19.70;49.00
75517;DHT22;64097;52.548;13.406;2023-01-01T13:15:45;19.70;49.00
75517;DHT22;64097;52.548;13.406;2023-01-01T13:20:43;19.70;49.00
75517;DHT22;64097;52.548;13.406;2023-01-01T13:29:15;19.60;49.10
75517;DHT22;64097;52.548;13.406;2023-01-01T13:34:57;19.60;49.20
75517;DHT22;64097;52.548;13.406;2023-01-01T13:40:28;19.60;49.20
75517;DHT22;64097;52.548;13.406;2023-01-01T13:45:26;19.60;49.40
75517;DHT22;64097;52.548;13.406;2023-01-01T13:50:59;19.60;49.50
